createdAt,value
2022-11-30T00:01:17.290Z,13.87
2022-11-30T00:03:44.109Z,12.97
2022-11-30T00:06:14.976Z,12.80
2022-11-30T00:08:42.488Z,13.60
2022-11-30T00:11:10.703Z,14.13
2022-11-30T00:13:37.795Z,14.23
2022-11-30T00:16:05.025Z,15.43
2022-11-30T00:18:31.819Z,15.67
2022-11-30T00:21:02.872Z,15.97
2022-11-30T00:23:37.921Z,16.17
2022-11-30T00:26:07.828Z,15.40
2022-11-30T00:28:35.530Z,14.93
2022-11-30T00:31:05.363Z,14.13
2022-11-30T00:33:33.906Z,14.60
2022-11-30T00:36:03.210Z,14.50
2022-11-30T00:38:31.801Z,14.80
2022-11-30T00:41:00.102Z,14.70
2022-11-30T00:43:27.352Z,14.03
2022-11-30T00:45:54.401Z,13.63
2022-11-30T00:48:21.273Z,13.67
2022-11-30T00:50:49.038Z,13.90
2022-11-30T00:53:16.146Z,13.20
2022-11-30T00:55:44.482Z,13.73
2022-11-30T00:58:12.154Z,13.67
2022-11-30T01:00:40.153Z,15.13
2022-11-30T01:03:06.988Z,14.30
2022-11-30T01:05:34.931Z,14.07
2022-11-30T01:08:05.350Z,12.80
2022-11-30T01:10:33.548Z,13.33
2022-11-30T01:13:00.554Z,14.60
2022-11-30T01:15:27.795Z,13.77
2022-11-30T01:17:54.476Z,14.27
2022-11-30T01:20:21.209Z,14.30
2022-11-30T01:22:47.877Z,14.17
2022-11-30T01:25:14.733Z,12.63
2022-11-30T01:27:41.407Z,13.90
2022-11-30T01:30:08.755Z,13.40
2022-11-30T01:32:35.396Z,13.47
2022-11-30T01:35:02.031Z,13.23
2022-11-30T01:37:30.022Z,13.07
2022-11-30T01:39:56.894Z,13.17
2022-11-30T01:42:24.064Z,13.53
2022-11-30T01:44:53.717Z,12.53
2022-11-30T01:47:25.431Z,12.90
2022-11-30T01:50:02.682Z,13.20
2022-11-30T01:52:35.726Z,12.37
2022-11-30T01:55:05.144Z,12.17
2022-11-30T01:57:37.116Z,12.40
2022-11-30T02:00:07.806Z,12.87
2022-11-30T02:02:44.857Z,13.37
2022-11-30T02:05:12.754Z,12.53
2022-11-30T02:07:39.991Z,13.23
2022-11-30T02:10:07.388Z,12.67
2022-11-30T02:13:11.033Z,12.40
2022-11-30T02:16:04.523Z,11.93
2022-11-30T02:19:17.932Z,12.77
2022-11-30T02:21:47.324Z,11.93
2022-11-30T02:24:28.937Z,12.20
2022-11-30T02:27:37.004Z,12.27
2022-11-30T02:30:09.767Z,11.53
2022-11-30T02:32:48.120Z,12.80
2022-11-30T02:35:18.902Z,11.57
2022-11-30T02:37:46.353Z,13.33
2022-11-30T02:40:15.734Z,12.77
2022-11-30T02:42:42.476Z,13.30
2022-11-30T02:45:10.193Z,12.90
2022-11-30T02:47:41.978Z,13.03
2022-11-30T02:50:08.920Z,13.40
2022-11-30T02:52:35.945Z,13.03
2022-11-30T02:55:06.289Z,13.43
2022-11-30T02:57:33.494Z,13.77
2022-11-30T03:00:03.985Z,13.43
2022-11-30T03:02:30.676Z,13.47
2022-11-30T03:04:57.371Z,13.90
2022-11-30T03:07:24.306Z,13.40
2022-11-30T03:09:51.156Z,13.90
2022-11-30T03:12:17.830Z,13.67
2022-11-30T03:14:44.680Z,13.57
2022-11-30T03:17:11.623Z,13.37
2022-11-30T03:19:38.264Z,13.63
2022-11-30T03:22:05.019Z,13.30
2022-11-30T03:24:31.678Z,13.63
2022-11-30T03:26:58.339Z,13.80
2022-11-30T03:29:25.002Z,13.43
2022-11-30T03:31:51.775Z,14.10
2022-11-30T03:34:18.626Z,14.03
2022-11-30T03:36:45.347Z,13.90
2022-11-30T03:39:12.009Z,13.83
2022-11-30T03:41:38.707Z,14.20
2022-11-30T03:44:05.339Z,13.80
2022-11-30T03:46:32.007Z,15.37
2022-11-30T03:48:58.712Z,13.87
2022-11-30T03:51:25.498Z,14.63
2022-11-30T03:53:52.250Z,15.87
2022-11-30T03:56:18.983Z,13.80
2022-11-30T03:58:45.650Z,14.60
2022-11-30T04:01:14.920Z,14.27
2022-11-30T04:03:42.840Z,14.53
2022-11-30T04:06:12.011Z,14.57
2022-11-30T04:08:39.657Z,15.03
2022-11-30T04:11:07.439Z,14.93
2022-11-30T04:13:35.916Z,15.17
2022-11-30T04:16:03.377Z,13.87
2022-11-30T04:18:32.390Z,14.03
2022-11-30T04:21:00.620Z,14.40
2022-11-30T04:23:31.497Z,14.60
2022-11-30T04:25:58.968Z,14.00
2022-11-30T04:28:25.640Z,14.73
2022-11-30T04:30:53.770Z,13.90
2022-11-30T04:33:20.490Z,14.90
2022-11-30T04:35:50.675Z,15.13
2022-11-30T04:38:17.461Z,14.03
2022-11-30T04:40:44.527Z,14.43
2022-11-30T04:43:12.568Z,14.97
2022-11-30T04:45:39.768Z,15.10
2022-11-30T04:48:07.604Z,14.07
2022-11-30T04:50:34.533Z,14.30
2022-11-30T04:53:02.153Z,14.97
2022-11-30T04:55:28.851Z,15.10
2022-11-30T04:57:55.592Z,15.07
2022-11-30T05:00:22.648Z,13.97
2022-11-30T05:02:52.719Z,14.07
2022-11-30T05:05:20.343Z,14.47
2022-11-30T05:07:51.634Z,14.83
2022-11-30T05:10:18.451Z,13.70
2022-11-30T05:12:45.457Z,14.60
2022-11-30T05:15:12.188Z,14.60
2022-11-30T05:17:39.089Z,14.20
2022-11-30T05:20:06.416Z,15.23
2022-11-30T05:22:35.048Z,14.83
2022-11-30T05:25:02.975Z,14.93
2022-11-30T05:27:29.894Z,14.90
2022-11-30T05:29:56.527Z,14.33
2022-11-30T05:32:23.172Z,13.67
2022-11-30T05:34:51.594Z,14.63
2022-11-30T05:37:19.518Z,14.13
2022-11-30T05:39:46.279Z,13.50
2022-11-30T05:42:13.272Z,14.83
2022-11-30T05:44:39.931Z,15.07
2022-11-30T05:47:06.719Z,14.90
2022-11-30T05:49:33.424Z,14.80
2022-11-30T05:52:00.135Z,14.27
2022-11-30T05:54:27.483Z,15.10
2022-11-30T05:56:55.217Z,16.20
2022-11-30T05:59:23.084Z,15.07
2022-11-30T06:01:52.284Z,15.13
2022-11-30T06:04:19.712Z,14.30
2022-11-30T06:06:46.737Z,15.43
2022-11-30T06:09:13.388Z,15.10
2022-11-30T06:11:40.163Z,16.27
2022-11-30T06:14:06.820Z,14.73
2022-11-30T06:16:33.525Z,15.37
2022-11-30T06:19:00.299Z,13.97
2022-11-30T06:21:27.786Z,15.10
2022-11-30T06:23:54.427Z,14.13
2022-11-30T06:26:21.185Z,15.23
2022-11-30T06:28:48.709Z,15.50
2022-11-30T06:31:16.118Z,13.97
2022-11-30T06:33:44.935Z,13.97
2022-11-30T06:36:11.621Z,14.47
2022-11-30T06:38:38.328Z,12.33
2022-11-30T06:41:07.216Z,12.57
2022-11-30T06:43:37.841Z,14.07
2022-11-30T06:46:06.027Z,14.13
2022-11-30T06:48:33.163Z,14.67
2022-11-30T06:51:00.499Z,14.87
2022-11-30T06:53:27.652Z,15.30
2022-11-30T06:55:54.504Z,15.77
2022-11-30T06:58:21.342Z,14.97
2022-11-30T07:00:48.080Z,14.97
2022-11-30T07:03:14.873Z,14.40
2022-11-30T07:05:46.112Z,14.83
2022-11-30T07:08:15.482Z,14.77
2022-11-30T07:10:47.237Z,15.03
2022-11-30T07:13:16.545Z,14.20
2022-11-30T07:15:43.700Z,14.83
2022-11-30T07:18:11.233Z,14.53
2022-11-30T07:20:38.880Z,16.00
2022-11-30T07:23:25.311Z,14.87
2022-11-30T07:26:09.449Z,14.27
2022-11-30T07:28:50.280Z,16.07
2022-11-30T07:31:25.985Z,16.20
2022-11-30T07:33:53.596Z,16.00
2022-11-30T07:36:22.103Z,15.37
2022-11-30T07:38:49.323Z,15.37
2022-11-30T07:41:16.115Z,16.70
2022-11-30T07:43:42.829Z,18.03
2022-11-30T07:46:12.618Z,18.37
2022-11-30T07:48:39.779Z,19.03
2022-11-30T07:51:26.838Z,17.33
2022-11-30T07:53:56.575Z,16.97
2022-11-30T07:56:24.199Z,16.37
2022-11-30T07:58:53.660Z,16.97
2022-11-30T08:01:23.206Z,16.93
2022-11-30T08:03:51.381Z,16.37
2022-11-30T08:06:20.966Z,16.00
2022-11-30T08:08:49.467Z,18.23
2022-11-30T08:11:19.260Z,17.47
2022-11-30T08:13:46.120Z,16.10
2022-11-30T08:16:15.656Z,16.40
2022-11-30T08:18:43.053Z,16.53
2022-11-30T08:21:12.752Z,16.63
2022-11-30T08:23:42.079Z,17.30
2022-11-30T08:26:15.087Z,16.93
2022-11-30T08:28:43.190Z,19.00
2022-11-30T08:31:15.809Z,17.83
2022-11-30T08:33:42.864Z,16.00
2022-11-30T08:36:12.541Z,15.73
2022-11-30T08:38:40.393Z,15.10
2022-11-30T08:41:08.806Z,15.63
2022-11-30T08:43:35.658Z,16.00
2022-11-30T08:46:21.219Z,14.77
2022-11-30T08:49:02.416Z,15.17
2022-11-30T08:52:14.676Z,15.57
2022-11-30T08:54:27.286Z,16.47
2022-11-30T08:56:54.102Z,14.83
2022-11-30T08:59:21.016Z,14.23
2022-11-30T09:01:47.688Z,15.80
2022-11-30T09:04:14.365Z,16.70
2022-11-30T09:06:41.846Z,16.77
2022-11-30T09:09:08.571Z,17.80
2022-11-30T09:11:35.356Z,15.47
2022-11-30T09:14:04.731Z,15.53
2022-11-30T09:16:31.785Z,17.27
2022-11-30T09:18:58.553Z,16.33
2022-11-30T09:21:25.635Z,15.80
2022-11-30T09:23:52.985Z,16.87
2022-11-30T09:26:21.305Z,16.27
2022-11-30T09:28:48.285Z,15.67
2022-11-30T09:31:24.094Z,15.37
2022-11-30T09:33:51.886Z,14.70
2022-11-30T09:36:22.596Z,12.90
2022-11-30T09:38:49.722Z,13.33
2022-11-30T09:41:28.485Z,13.03
2022-11-30T09:44:15.371Z,13.80
2022-11-30T09:47:08.470Z,12.90
2022-11-30T09:49:39.418Z,12.67
2022-11-30T09:52:11.841Z,13.20
2022-11-30T09:54:41.004Z,12.57
2022-11-30T09:57:43.303Z,13.73
2022-11-30T10:00:15.691Z,13.40
2022-11-30T10:02:43.383Z,12.67
2022-11-30T10:05:47.857Z,11.80
2022-11-30T10:08:33.160Z,11.87
2022-11-30T10:11:39.138Z,11.27
2022-11-30T10:14:19.175Z,11.43
2022-11-30T10:17:05.310Z,11.37
2022-11-30T10:19:51.010Z,10.97
2022-11-30T10:22:23.662Z,10.93
2022-11-30T10:25:22.605Z,10.07
2022-11-30T10:27:52.416Z,9.33
2022-11-30T10:30:33.385Z,9.03
2022-11-30T10:33:13.691Z,11.70
2022-11-30T10:35:50.921Z,10.87
2022-11-30T10:38:56.198Z,8.47
2022-11-30T10:41:31.084Z,10.63
2022-11-30T10:44:06.695Z,12.77
2022-11-30T10:46:38.591Z,15.90
2022-11-30T10:49:08.114Z,11.77
2022-11-30T10:51:38.875Z,14.60
2022-11-30T10:54:15.368Z,14.00
2022-11-30T10:56:42.458Z,12.17
2022-11-30T10:59:40.664Z,11.77
2022-11-30T11:02:43.052Z,8.97
2022-11-30T11:05:18.970Z,8.60
2022-11-30T11:08:05.923Z,8.27
2022-11-30T11:10:44.282Z,8.73
2022-11-30T11:13:40.318Z,8.47
2022-11-30T11:16:13.374Z,8.17
2022-11-30T11:18:55.230Z,6.27
2022-11-30T11:21:23.506Z,5.23
2022-11-30T11:23:52.921Z,5.90
2022-11-30T11:26:23.369Z,5.60
2022-11-30T11:28:52.506Z,5.57
2022-11-30T11:31:37.102Z,5.30
2022-11-30T11:34:22.487Z,5.53
2022-11-30T11:37:05.874Z,5.87
2022-11-30T11:39:32.626Z,5.50
2022-11-30T11:42:00.434Z,5.30
2022-11-30T11:44:28.026Z,5.60
2022-11-30T11:47:06.992Z,6.23
2022-11-30T11:49:38.618Z,5.77
2022-11-30T11:52:11.422Z,5.53
2022-11-30T11:54:41.118Z,6.03
2022-11-30T11:57:12.259Z,5.80
2022-11-30T11:59:57.025Z,6.37
2022-11-30T12:02:52.959Z,5.43
2022-11-30T12:05:29.571Z,5.57
2022-11-30T12:08:17.491Z,5.60
2022-11-30T12:10:51.690Z,5.27
2022-11-30T12:13:33.135Z,5.53
2022-11-30T12:16:05.816Z,5.53
2022-11-30T12:18:47.955Z,5.20
2022-11-30T12:21:21.324Z,6.03
2022-11-30T12:24:09.245Z,5.00
2022-11-30T12:26:39.220Z,5.97
2022-11-30T12:29:17.950Z,5.93
2022-11-30T12:31:59.324Z,4.87
2022-11-30T12:34:41.881Z,5.17
2022-11-30T12:37:17.675Z,4.70
2022-11-30T12:40:04.776Z,4.93
2022-11-30T12:42:40.056Z,4.70
2022-11-30T12:45:27.983Z,4.63
2022-11-30T12:48:10.760Z,5.07
2022-11-30T12:50:43.450Z,5.40
2022-11-30T12:53:21.316Z,5.33
2022-11-30T12:56:29.427Z,5.23
2022-11-30T12:59:14.318Z,5.20
2022-11-30T13:01:50.821Z,5.93
2022-11-30T13:04:32.956Z,6.77
2022-11-30T13:07:20.960Z,6.33
2022-11-30T13:09:55.606Z,6.57
2022-11-30T13:12:37.044Z,6.23
2022-11-30T13:15:24.795Z,6.67
2022-11-30T13:17:53.040Z,6.50
2022-11-30T13:20:39.090Z,5.97
2022-11-30T13:23:28.691Z,6.07
2022-11-30T13:26:14.700Z,6.40
2022-11-30T13:28:41.361Z,6.00
2022-11-30T13:31:15.187Z,5.80
2022-11-30T13:33:53.843Z,6.70
2022-11-30T13:36:40.827Z,6.13
2022-11-30T13:39:13.749Z,6.33
2022-11-30T13:41:42.088Z,6.10
2022-11-30T13:44:29.891Z,5.83
2022-11-30T13:46:56.965Z,4.97
2022-11-30T13:49:29.089Z,5.00
2022-11-30T13:52:21.396Z,5.50
2022-11-30T13:54:51.499Z,4.73
2022-11-30T13:57:24.476Z,4.90
2022-11-30T13:59:53.145Z,5.00
2022-11-30T14:02:41.670Z,5.27
2022-11-30T14:05:22.708Z,5.80
2022-11-30T14:07:52.710Z,5.03
2022-11-30T14:10:34.729Z,6.07
2022-11-30T14:13:09.357Z,5.07
2022-11-30T14:15:38.772Z,5.63
2022-11-30T14:18:16.710Z,5.80
2022-11-30T14:20:51.347Z,5.50
2022-11-30T14:23:27.446Z,5.93
2022-11-30T14:25:56.968Z,6.00
2022-11-30T14:28:34.753Z,21.13
2022-11-30T14:31:02.407Z,7.70
2022-11-30T14:33:46.322Z,5.90
2022-11-30T14:36:13.321Z,5.77
2022-11-30T14:38:42.476Z,5.73
2022-11-30T14:41:29.857Z,5.83
2022-11-30T14:44:02.265Z,5.83
2022-11-30T14:46:30.334Z,5.60
2022-11-30T14:49:15.891Z,5.57
2022-11-30T14:51:46.545Z,5.70
2022-11-30T14:54:22.488Z,5.23
2022-11-30T14:56:52.678Z,5.17
2022-11-30T14:59:28.281Z,5.83
2022-11-30T15:02:02.097Z,6.60
2022-11-30T15:04:29.616Z,5.63
2022-11-30T15:06:57.374Z,5.70
2022-11-30T15:09:32.380Z,5.57
2022-11-30T15:11:59.895Z,5.63
2022-11-30T15:14:26.607Z,5.90
2022-11-30T15:16:57.013Z,5.93
2022-11-30T15:19:25.039Z,5.77
2022-11-30T15:21:53.008Z,5.83
2022-11-30T15:24:20.864Z,6.07
2022-11-30T15:26:53.996Z,5.97
2022-11-30T15:29:37.638Z,6.57
2022-11-30T15:32:14.787Z,6.20
2022-11-30T15:34:56.355Z,13.83
2022-11-30T15:37:31.723Z,7.73
2022-11-30T15:40:00.870Z,9.47
2022-11-30T15:42:39.971Z,10.37
2022-11-30T15:45:25.271Z,11.00
2022-11-30T15:47:53.802Z,8.67
2022-11-30T15:50:26.337Z,8.23
2022-11-30T15:52:55.590Z,9.50
2022-11-30T15:55:45.694Z,8.90
2022-11-30T15:58:26.091Z,8.10
2022-11-30T16:01:12.914Z,8.80
2022-11-30T16:03:54.693Z,8.80
2022-11-30T16:06:23.498Z,8.70
2022-11-30T16:08:50.847Z,9.13
2022-11-30T16:11:18.908Z,9.67
2022-11-30T16:13:47.299Z,9.40
2022-11-30T16:16:19.696Z,15.07
2022-11-30T16:18:46.551Z,16.40
2022-11-30T16:21:16.451Z,17.40
2022-11-30T16:23:43.558Z,11.50
2022-11-30T16:26:43.217Z,11.03
2022-11-30T16:29:04.193Z,11.90
2022-11-30T16:31:31.041Z,11.37
2022-11-30T16:33:57.821Z,10.40
2022-11-30T16:36:24.599Z,11.00
2022-11-30T16:38:52.893Z,11.93
2022-11-30T16:41:19.584Z,11.03
2022-11-30T16:43:48.379Z,10.83
2022-11-30T16:46:18.509Z,11.43
2022-11-30T16:48:45.826Z,11.47
2022-11-30T16:51:31.399Z,12.30
2022-11-30T16:53:58.659Z,12.27
2022-11-30T16:56:25.492Z,13.40
2022-11-30T16:58:52.725Z,12.47
2022-11-30T17:01:34.489Z,12.63
2022-11-30T17:04:22.697Z,12.67
2022-11-30T17:06:51.634Z,12.70
2022-11-30T17:09:20.981Z,13.60
2022-11-30T17:11:52.359Z,13.63
2022-11-30T17:14:22.271Z,12.77
2022-11-30T17:16:49.181Z,13.70
2022-11-30T17:19:15.930Z,13.27
2022-11-30T17:21:44.520Z,14.10
2022-11-30T17:24:12.618Z,14.03
2022-11-30T17:26:39.316Z,14.47
2022-11-30T17:29:07.101Z,14.13
2022-11-30T17:31:34.327Z,13.43
2022-11-30T17:34:00.978Z,14.10
2022-11-30T17:36:29.395Z,13.67
2022-11-30T17:38:56.670Z,12.23
2022-11-30T17:41:23.794Z,13.00
2022-11-30T17:43:50.634Z,14.80
2022-11-30T17:46:18.458Z,14.43
2022-11-30T17:48:45.952Z,14.10
2022-11-30T17:51:13.064Z,13.53
2022-11-30T17:53:41.123Z,13.70
2022-11-30T17:56:14.034Z,15.63
2022-11-30T17:58:44.225Z,15.40
2022-11-30T18:01:26.834Z,17.40
2022-11-30T18:03:54.943Z,17.97
2022-11-30T18:06:21.926Z,17.37
2022-11-30T18:08:48.658Z,17.30
2022-11-30T18:11:20.858Z,16.27
2022-11-30T18:13:50.012Z,17.73
2022-11-30T18:16:19.421Z,16.53
2022-11-30T18:18:48.319Z,15.77
2022-11-30T18:21:20.026Z,16.07
2022-11-30T18:23:48.094Z,14.07
2022-11-30T18:26:18.299Z,16.53
2022-11-30T18:28:45.519Z,15.87
2022-11-30T18:31:13.173Z,15.70
2022-11-30T18:33:39.988Z,15.37
2022-11-30T18:36:07.905Z,14.93
2022-11-30T18:38:37.981Z,14.03
2022-11-30T18:41:06.489Z,17.23
2022-11-30T18:43:34.272Z,14.17
2022-11-30T18:46:09.681Z,14.97
2022-11-30T18:48:37.689Z,12.60
2022-11-30T18:51:14.609Z,13.10
2022-11-30T18:53:41.902Z,13.07
2022-11-30T18:56:18.136Z,13.20
2022-11-30T18:58:46.134Z,14.23
2022-11-30T19:01:21.218Z,14.70
2022-11-30T19:03:56.808Z,13.67
2022-11-30T19:06:32.704Z,13.20
2022-11-30T19:09:01.916Z,13.67
2022-11-30T19:11:28.955Z,12.97
2022-11-30T19:13:57.151Z,12.33
2022-11-30T19:16:25.592Z,13.37
2022-11-30T19:18:52.999Z,13.53
2022-11-30T19:21:22.086Z,12.97
2022-11-30T19:23:49.633Z,14.30
2022-11-30T19:26:16.523Z,14.10
2022-11-30T19:28:43.977Z,15.33
2022-11-30T19:31:13.750Z,14.60
2022-11-30T19:33:42.089Z,14.23
2022-11-30T19:36:13.591Z,11.67
2022-11-30T19:38:40.412Z,12.47
2022-11-30T19:41:08.681Z,11.50
2022-11-30T19:43:35.942Z,12.63
2022-11-30T19:46:08.418Z,11.70
2022-11-30T19:48:35.395Z,11.70
2022-11-30T19:51:16.360Z,11.70
2022-11-30T19:53:44.792Z,11.43
2022-11-30T19:56:17.320Z,11.60
2022-11-30T19:58:45.324Z,10.60
2022-11-30T20:01:17.075Z,10.43
2022-11-30T20:03:46.365Z,12.07
2022-11-30T20:06:13.296Z,11.47
2022-11-30T20:08:40.719Z,11.40
2022-11-30T20:11:09.311Z,11.13
2022-11-30T20:13:36.440Z,11.40
2022-11-30T20:16:14.892Z,11.03
2022-11-30T20:18:45.957Z,10.80
2022-11-30T20:21:15.756Z,11.60
2022-11-30T20:23:43.576Z,11.50
2022-11-30T20:26:18.122Z,11.63
2022-11-30T20:28:45.840Z,10.33
2022-11-30T20:31:14.756Z,11.77
2022-11-30T20:33:42.252Z,10.73
2022-11-30T20:36:10.433Z,11.40
2022-11-30T20:38:38.007Z,11.47
2022-11-30T20:41:07.894Z,10.80
2022-11-30T20:43:34.580Z,10.17
2022-11-30T20:46:01.784Z,10.00
2022-11-30T20:48:29.094Z,10.13
2022-11-30T20:51:22.286Z,10.37
2022-11-30T20:53:42.792Z,9.53
2022-11-30T20:56:10.072Z,10.13
2022-11-30T20:58:36.770Z,10.50
2022-11-30T21:01:11.495Z,10.50
2022-11-30T21:03:39.019Z,10.37
2022-11-30T21:06:05.966Z,10.73
2022-11-30T21:08:34.310Z,10.97
2022-11-30T21:11:07.607Z,11.20
2022-11-30T21:13:34.772Z,10.30
2022-11-30T21:16:06.916Z,9.83
2022-11-30T21:18:38.379Z,11.53
2022-11-30T21:21:16.904Z,9.93
2022-11-30T21:23:45.060Z,10.47
2022-11-30T21:26:17.526Z,10.00
2022-11-30T21:28:45.796Z,10.30
2022-11-30T21:31:13.019Z,10.43
2022-11-30T21:33:40.210Z,10.37
2022-11-30T21:36:08.802Z,10.07
2022-11-30T21:38:35.837Z,9.80
2022-11-30T21:41:03.407Z,11.13
2022-11-30T21:43:33.354Z,11.33
2022-11-30T21:46:06.409Z,11.07
2022-11-30T21:48:35.622Z,11.10
2022-11-30T21:51:10.824Z,11.30
2022-11-30T21:53:41.017Z,12.53
2022-11-30T21:56:12.743Z,12.23
2022-11-30T21:58:41.486Z,11.00
2022-11-30T22:01:12.450Z,12.07
2022-11-30T22:03:39.115Z,11.70
2022-11-30T22:06:13.917Z,11.13
2022-11-30T22:08:41.250Z,11.23
2022-11-30T22:11:13.349Z,10.20
2022-11-30T22:13:40.587Z,11.23
2022-11-30T22:16:10.810Z,11.03
2022-11-30T22:18:39.712Z,10.43
2022-11-30T22:21:10.288Z,11.10
2022-11-30T22:23:39.291Z,9.63
2022-11-30T22:26:11.936Z,9.87
2022-11-30T22:28:39.142Z,9.87
2022-11-30T22:31:07.907Z,10.10
2022-11-30T22:33:36.228Z,9.97
2022-11-30T22:36:04.226Z,9.47
2022-11-30T22:38:31.875Z,9.90
2022-11-30T22:41:06.829Z,9.07
2022-11-30T22:43:34.039Z,9.70
2022-11-30T22:46:07.951Z,9.53
2022-11-30T22:48:35.554Z,9.50
2022-11-30T22:51:07.111Z,10.03
2022-11-30T22:53:36.045Z,9.50
2022-11-30T22:56:08.253Z,10.50
2022-11-30T22:58:34.972Z,9.00
2022-11-30T23:01:15.113Z,8.83
2022-11-30T23:03:43.443Z,9.27
2022-11-30T23:06:11.986Z,9.00
2022-11-30T23:08:38.895Z,8.70
2022-11-30T23:11:09.232Z,8.97
2022-11-30T23:13:36.709Z,9.47
2022-11-30T23:16:04.774Z,8.93
2022-11-30T23:18:45.538Z,9.03
2022-11-30T23:21:23.430Z,9.63
2022-11-30T23:23:50.100Z,8.90
2022-11-30T23:26:25.659Z,8.70
2022-11-30T23:28:54.148Z,9.70
2022-11-30T23:31:33.835Z,9.77
2022-11-30T23:34:07.068Z,9.30
2022-11-30T23:36:34.913Z,9.83
2022-11-30T23:39:09.023Z,9.43
2022-11-30T23:41:35.836Z,9.43
2022-11-30T23:44:03.402Z,9.53
2022-11-30T23:46:30.470Z,10.17
2022-11-30T23:48:57.260Z,9.77
2022-11-30T23:51:24.341Z,9.43
2022-11-30T23:53:51.159Z,9.77
2022-11-30T23:56:19.383Z,9.40
2022-11-30T23:58:46.647Z,9.57
